sensor_id;sensor_type;location;lat;lon;timestamp;temperature;humidity
7129;DHT22;3606;52.930;8.644;2022-11-15T00:00:06;6.80;99.90
7129;DHT22;3606;52.930;8.644;2022-11-15T00:02:31;6.70;99.90
7129;DHT22;3606;52.930;8.644;2022-11-15T00:04:57;6.60;99.90
7129;DHT22;3606;52.930;8.644;2022-11-15T00:07:23;6.50;99.90
7129;DHT22;3606;52.930;8.644;2022-11-15T00:09:48;6.50;99.90
7129;DHT22;3606;52.930;8.644;2022-11-15T00:12:14;6.40;99.90
7129;DHT22;3606;52.930;8.644;2022-11-15T00:14:39;6.30;99.90
7129;DHT22;3606;52.930;8.644;2022-11-15T00:17:05;6.20;99.90
7129;DHT22;3606;52.930;8.644;2022-11-15T00:19:30;6.10;99.90
7129;DHT22;3606;52.930;8.644;2022-11-15T00:21:56;6.00;99.90
7129;DHT22;3606;52.930;8.644;2022-11-15T00:24:21;5.90;99.90
7129;DHT22;3606;52.930;8.644;2022-11-15T00:26:47;5.90;99.90
7129;DHT22;3606;52.930;8.644;2022-11-15T00:29:13;5.80;99.90
7129;DHT22;3606;52.930;8.644;2022-11-15T00:31:38;5.70;99.90
7129;DHT22;3606;52.930;8.644;2022-11-15T00:34:04;5.70;99.90
7129;DHT22;3606;52.930;8.644;2022-11-15T00:36:32;5.80;99.90
7129;DHT22;3606;52.930;8.644;2022-11-15T00:38:58;5.80;99.90
7129;DHT22;3606;52.930;8.644;2022-11-15T00:41:23;5.90;99.90
7129;DHT22;3606;52.930;8.644;2022-11-15T00:43:49;5.90;99.90
7129;DHT22;3606;52.930;8.644;2022-11-15T00:46:15;5.80;99.90
7129;DHT22;3606;52.930;8.644;2022-11-15T00:48:40;5.70;99.90
7129;DHT22;3606;52.930;8.644;2022-11-15T00:51:06;5.60;99.90
7129;DHT22;3606;52.930;8.644;2022-11-15T00:53:31;5.60;99.90
7129;DHT22;3606;52.930;8.644;2022-11-15T00:55:57;5.50;99.90
7129;DHT22;3606;52.930;8.644;2022-11-15T00:58:23;5.30;99.90
7129;DHT22;3606;52.930;8.644;2022-11-15T01:00:48;5.20;99.90
7129;DHT22;3606;52.930;8.644;2022-11-15T01:03:14;5.20;99.90
7129;DHT22;3606;52.930;8.644;2022-11-15T01:05:39;5.20;99.90
7129;DHT22;3606;52.930;8.644;2022-11-15T01:08:05;5.20;99.90
7129;DHT22;3606;52.930;8.644;2022-11-15T01:10:30;5.20;99.90
7129;DHT22;3606;52.930;8.644;2022-11-15T01:12:56;5.10;99.90
7129;DHT22;3606;52.930;8.644;2022-11-15T01:15:22;5.20;99.90
7129;DHT22;3606;52.930;8.644;2022-11-15T01:17:47;5.10;99.90
7129;DHT22;3606;52.930;8.644;2022-11-15T01:20:13;5.00;99.90
7129;DHT22;3606;52.930;8.644;2022-11-15T01:22:39;4.90;99.90
7129;DHT22;3606;52.930;8.644;2022-11-15T01:25:05;4.90;99.90
7129;DHT22;3606;52.930;8.644;2022-11-15T01:27:30;4.80;99.90
7129;DHT22;3606;52.930;8.644;2022-11-15T01:29:56;4.70;99.90
7129;DHT22;3606;52.930;8.644;2022-11-15T01:32:21;4.80;99.90
7129;DHT22;3606;52.930;8.644;2022-11-15T01:34:47;5.00;99.90
7129;DHT22;3606;52.930;8.644;2022-11-15T01:37:12;5.40;99.90
7129;DHT22;3606;52.930;8.644;2022-11-15T01:39:38;5.70;99.90
7129;DHT22;3606;52.930;8.644;2022-11-15T01:42:04;6.00;99.90
7129;DHT22;3606;52.930;8.644;2022-11-15T01:44:42;6.20;99.90
7129;DHT22;3606;52.930;8.644;2022-11-15T01:47:21;6.50;99.90
7129;DHT22;3606;52.930;8.644;2022-11-15T01:49:59;6.60;99.90
7129;DHT22;3606;52.930;8.644;2022-11-15T01:52:27;6.70;99.90
7129;DHT22;3606;52.930;8.644;2022-11-15T01:55:05;6.80;99.90
7129;DHT22;3606;52.930;8.644;2022-11-15T01:57:33;6.90;99.90
7129;DHT22;3606;52.930;8.644;2022-11-15T02:00:00;7.00;99.90
7129;DHT22;3606;52.930;8.644;2022-11-15T02:02:26;7.00;99.90
7129;DHT22;3606;52.930;8.644;2022-11-15T02:04:52;7.10;99.90
7129;DHT22;3606;52.930;8.644;2022-11-15T02:07:19;7.10;99.90
7129;DHT22;3606;52.930;8.644;2022-11-15T02:09:46;7.20;99.90
7129;DHT22;3606;52.930;8.644;2022-11-15T02:12:16;7.30;99.90
7129;DHT22;3606;52.930;8.644;2022-11-15T02:14:48;7.30;99.90
7129;DHT22;3606;52.930;8.644;2022-11-15T02:22:45;7.50;99.90
7129;DHT22;3606;52.930;8.644;2022-11-15T02:39:38;8.10;99.90
7129;DHT22;3606;52.930;8.644;2022-11-15T02:42:49;8.20;99.90
7129;DHT22;3606;52.930;8.644;2022-11-15T02:45:41;8.30;99.90
7129;DHT22;3606;52.930;8.644;2022-11-15T02:48:10;8.30;99.90
7129;DHT22;3606;52.930;8.644;2022-11-15T02:50:36;8.30;99.90
7129;DHT22;3606;52.930;8.644;2022-11-15T02:53:03;8.40;99.90
7129;DHT22;3606;52.930;8.644;2022-11-15T03:00:35;8.40;99.90
7129;DHT22;3606;52.930;8.644;2022-11-15T03:05:46;8.40;99.90
7129;DHT22;3606;52.930;8.644;2022-11-15T03:08:31;8.40;99.90
7129;DHT22;3606;52.930;8.644;2022-11-15T03:11:14;8.50;99.90
7129;DHT22;3606;52.930;8.644;2022-11-15T03:16:51;8.50;99.90
7129;DHT22;3606;52.930;8.644;2022-11-15T03:19:38;8.60;99.90
7129;DHT22;3606;52.930;8.644;2022-11-15T03:22:08;8.70;99.90
7129;DHT22;3606;52.930;8.644;2022-11-15T03:24:37;8.70;99.90
7129;DHT22;3606;52.930;8.644;2022-11-15T03:27:05;8.70;99.90
7129;DHT22;3606;52.930;8.644;2022-11-15T03:29:46;8.70;99.90
7129;DHT22;3606;52.930;8.644;2022-11-15T03:32:18;8.70;99.90
7129;DHT22;3606;52.930;8.644;2022-11-15T03:34:51;8.80;99.90
7129;DHT22;3606;52.930;8.644;2022-11-15T03:37:22;8.80;99.90
7129;DHT22;3606;52.930;8.644;2022-11-15T03:39:49;8.80;99.90
7129;DHT22;3606;52.930;8.644;2022-11-15T03:45:19;8.90;99.90
7129;DHT22;3606;52.930;8.644;2022-11-15T03:47:54;8.90;99.90
7129;DHT22;3606;52.930;8.644;2022-11-15T03:50:23;8.90;99.90
7129;DHT22;3606;52.930;8.644;2022-11-15T03:52:49;9.00;99.90
7129;DHT22;3606;52.930;8.644;2022-11-15T03:55:18;9.00;99.90
7129;DHT22;3606;52.930;8.644;2022-11-15T03:57:44;9.10;99.90
7129;DHT22;3606;52.930;8.644;2022-11-15T04:00:10;9.10;99.90
7129;DHT22;3606;52.930;8.644;2022-11-15T04:02:36;9.10;99.90
7129;DHT22;3606;52.930;8.644;2022-11-15T04:05:02;9.10;99.90
7129;DHT22;3606;52.930;8.644;2022-11-15T04:07:28;9.10;99.90
7129;DHT22;3606;52.930;8.644;2022-11-15T04:09:54;9.10;99.90
7129;DHT22;3606;52.930;8.644;2022-11-15T04:12:30;9.20;99.90
7129;DHT22;3606;52.930;8.644;2022-11-15T04:15:07;9.30;99.90
7129;DHT22;3606;52.930;8.644;2022-11-15T04:20:07;9.20;99.90
7129;DHT22;3606;52.930;8.644;2022-11-15T04:22:53;9.20;99.90
7129;DHT22;3606;52.930;8.644;2022-11-15T04:25:38;9.30;99.90
7129;DHT22;3606;52.930;8.644;2022-11-15T04:28:04;9.30;99.90
7129;DHT22;3606;52.930;8.644;2022-11-15T04:30:29;9.30;99.90
7129;DHT22;3606;52.930;8.644;2022-11-15T04:32:55;9.40;99.90
7129;DHT22;3606;52.930;8.644;2022-11-15T04:35:20;9.40;99.90
7129;DHT22;3606;52.930;8.644;2022-11-15T04:37:46;9.40;99.90
7129;DHT22;3606;52.930;8.644;2022-11-15T04:40:11;9.40;99.90
7129;DHT22;3606;52.930;8.644;2022-11-15T04:42:37;9.50;99.90
7129;DHT22;3606;52.930;8.644;2022-11-15T04:45:03;9.50;99.90
7129;DHT22;3606;52.930;8.644;2022-11-15T04:47:28;9.50;99.90
7129;DHT22;3606;52.930;8.644;2022-11-15T04:49:54;9.60;99.90
7129;DHT22;3606;52.930;8.644;2022-11-15T04:52:20;9.70;99.90
7129;DHT22;3606;52.930;8.644;2022-11-15T04:54:46;9.80;99.90
7129;DHT22;3606;52.930;8.644;2022-11-15T04:57:11;9.80;99.90
7129;DHT22;3606;52.930;8.644;2022-11-15T04:59:37;9.80;99.90
7129;DHT22;3606;52.930;8.644;2022-11-15T05:02:02;9.80;99.90
7129;DHT22;3606;52.930;8.644;2022-11-15T05:04:28;9.90;99.90
7129;DHT22;3606;52.930;8.644;2022-11-15T05:06:53;9.90;99.90
7129;DHT22;3606;52.930;8.644;2022-11-15T05:09:20;10.00;99.90
7129;DHT22;3606;52.930;8.644;2022-11-15T05:11:46;10.00;99.90
7129;DHT22;3606;52.930;8.644;2022-11-15T05:14:12;10.10;99.90
7129;DHT22;3606;52.930;8.644;2022-11-15T05:16:38;10.10;99.90
7129;DHT22;3606;52.930;8.644;2022-11-15T05:19:04;10.10;99.90
7129;DHT22;3606;52.930;8.644;2022-11-15T05:21:30;10.10;99.90
7129;DHT22;3606;52.930;8.644;2022-11-15T05:23:56;10.20;99.90
7129;DHT22;3606;52.930;8.644;2022-11-15T05:26:22;10.20;99.90
7129;DHT22;3606;52.930;8.644;2022-11-15T05:28:55;10.30;99.90
7129;DHT22;3606;52.930;8.644;2022-11-15T05:31:21;10.30;99.90
7129;DHT22;3606;52.930;8.644;2022-11-15T05:33:49;10.30;99.90
7129;DHT22;3606;52.930;8.644;2022-11-15T05:38:55;10.40;99.90
7129;DHT22;3606;52.930;8.644;2022-11-15T05:41:25;10.50;99.90
7129;DHT22;3606;52.930;8.644;2022-11-15T05:43:52;10.50;99.90
7129;DHT22;3606;52.930;8.644;2022-11-15T05:46:18;10.50;99.90
7129;DHT22;3606;52.930;8.644;2022-11-15T05:48:48;10.50;99.90
7129;DHT22;3606;52.930;8.644;2022-11-15T05:51:15;10.60;99.90
7129;DHT22;3606;52.930;8.644;2022-11-15T05:53:43;10.60;99.90
7129;DHT22;3606;52.930;8.644;2022-11-15T05:56:09;10.60;99.90
7129;DHT22;3606;52.930;8.644;2022-11-15T05:58:37;10.60;99.90
7129;DHT22;3606;52.930;8.644;2022-11-15T06:01:03;10.60;99.90
7129;DHT22;3606;52.930;8.644;2022-11-15T06:03:28;10.60;99.90
7129;DHT22;3606;52.930;8.644;2022-11-15T06:05:54;10.60;99.90
7129;DHT22;3606;52.930;8.644;2022-11-15T06:08:20;10.60;99.90
7129;DHT22;3606;52.930;8.644;2022-11-15T06:10:45;10.60;99.90
7129;DHT22;3606;52.930;8.644;2022-11-15T06:13:11;10.60;99.90
7129;DHT22;3606;52.930;8.644;2022-11-15T06:15:36;10.60;99.90
7129;DHT22;3606;52.930;8.644;2022-11-15T06:18:02;10.70;99.90
7129;DHT22;3606;52.930;8.644;2022-11-15T06:20:29;10.70;99.90
7129;DHT22;3606;52.930;8.644;2022-11-15T06:22:59;10.70;99.90
7129;DHT22;3606;52.930;8.644;2022-11-15T06:25:26;10.80;99.90
7129;DHT22;3606;52.930;8.644;2022-11-15T06:27:53;10.90;99.90
7129;DHT22;3606;52.930;8.644;2022-11-15T06:30:19;10.80;99.90
7129;DHT22;3606;52.930;8.644;2022-11-15T06:32:45;10.80;99.90
7129;DHT22;3606;52.930;8.644;2022-11-15T06:35:11;10.80;99.90
7129;DHT22;3606;52.930;8.644;2022-11-15T06:37:36;10.80;99.90
7129;DHT22;3606;52.930;8.644;2022-11-15T06:40:02;10.80;99.90
7129;DHT22;3606;52.930;8.644;2022-11-15T06:42:28;10.80;99.90
7129;DHT22;3606;52.930;8.644;2022-11-15T06:44:53;10.80;99.90
7129;DHT22;3606;52.930;8.644;2022-11-15T06:47:19;10.80;99.90
7129;DHT22;3606;52.930;8.644;2022-11-15T06:49:44;10.80;99.90
7129;DHT22;3606;52.930;8.644;2022-11-15T06:52:10;10.80;99.90
7129;DHT22;3606;52.930;8.644;2022-11-15T06:54:35;10.80;99.90
7129;DHT22;3606;52.930;8.644;2022-11-15T06:57:01;10.70;99.90
7129;DHT22;3606;52.930;8.644;2022-11-15T06:59:27;10.70;99.90
7129;DHT22;3606;52.930;8.644;2022-11-15T07:01:52;10.70;99.90
7129;DHT22;3606;52.930;8.644;2022-11-15T07:04:18;10.70;99.90
7129;DHT22;3606;52.930;8.644;2022-11-15T07:06:46;10.70;99.90
7129;DHT22;3606;52.930;8.644;2022-11-15T07:09:12;10.80;99.90
7129;DHT22;3606;52.930;8.644;2022-11-15T07:11:38;10.80;99.90
7129;DHT22;3606;52.930;8.644;2022-11-15T07:14:03;10.80;99.90
7129;DHT22;3606;52.930;8.644;2022-11-15T07:16:29;10.80;99.90
7129;DHT22;3606;52.930;8.644;2022-11-15T07:18:55;10.80;99.90
7129;DHT22;3606;52.930;8.644;2022-11-15T07:21:20;10.80;99.90
7129;DHT22;3606;52.930;8.644;2022-11-15T07:23:46;10.90;99.90
7129;DHT22;3606;52.930;8.644;2022-11-15T07:26:11;10.80;99.90
7129;DHT22;3606;52.930;8.644;2022-11-15T07:28:37;10.90;99.90
7129;DHT22;3606;52.930;8.644;2022-11-15T07:31:04;10.90;99.90
7129;DHT22;3606;52.930;8.644;2022-11-15T07:33:30;11.00;99.90
7129;DHT22;3606;52.930;8.644;2022-11-15T07:35:59;11.10;99.90
7129;DHT22;3606;52.930;8.644;2022-11-15T07:38:27;11.20;99.90
7129;DHT22;3606;52.930;8.644;2022-11-15T07:41:00;11.40;99.90
7129;DHT22;3606;52.930;8.644;2022-11-15T07:43:27;11.90;99.90
7129;DHT22;3606;52.930;8.644;2022-11-15T07:45:57;12.60;99.90
7129;DHT22;3606;52.930;8.644;2022-11-15T07:48:23;13.30;1.00
7129;DHT22;3606;52.930;8.644;2022-11-15T07:50:49;13.70;1.00
7129;DHT22;3606;52.930;8.644;2022-11-15T07:53:15;13.70;99.90
7129;DHT22;3606;52.930;8.644;2022-11-15T07:55:41;13.30;99.90
7129;DHT22;3606;52.930;8.644;2022-11-15T07:58:09;13.00;99.90
7129;DHT22;3606;52.930;8.644;2022-11-15T08:00:35;12.70;1.00
7129;DHT22;3606;52.930;8.644;2022-11-15T08:03:14;12.60;1.00
7129;DHT22;3606;52.930;8.644;2022-11-15T08:05:41;12.50;1.00
7129;DHT22;3606;52.930;8.644;2022-11-15T08:08:10;12.50;1.00
7129;DHT22;3606;52.930;8.644;2022-11-15T08:10:37;12.40;1.00
7129;DHT22;3606;52.930;8.644;2022-11-15T08:13:05;12.50;1.00
7129;DHT22;3606;52.930;8.644;2022-11-15T08:15:32;12.60;1.00
7129;DHT22;3606;52.930;8.644;2022-11-15T08:18:00;12.60;1.00
7129;DHT22;3606;52.930;8.644;2022-11-15T08:20:27;12.60;1.00
7129;DHT22;3606;52.930;8.644;2022-11-15T08:22:57;12.50;1.00
7129;DHT22;3606;52.930;8.644;2022-11-15T08:25:23;12.50;1.00
7129;DHT22;3606;52.930;8.644;2022-11-15T08:27:53;12.30;1.00
7129;DHT22;3606;52.930;8.644;2022-11-15T08:30:19;12.30;1.00
7129;DHT22;3606;52.930;8.644;2022-11-15T08:32:44;12.30;1.00
7129;DHT22;3606;52.930;8.644;2022-11-15T08:35:10;12.30;1.00
7129;DHT22;3606;52.930;8.644;2022-11-15T08:37:37;12.20;1.00
7129;DHT22;3606;52.930;8.644;2022-11-15T08:40:03;12.20;1.00
7129;DHT22;3606;52.930;8.644;2022-11-15T08:42:29;12.30;1.00
7129;DHT22;3606;52.930;8.644;2022-11-15T08:44:55;12.30;1.00
7129;DHT22;3606;52.930;8.644;2022-11-15T08:47:20;12.30;1.00
7129;DHT22;3606;52.930;8.644;2022-11-15T08:49:46;12.30;1.00
7129;DHT22;3606;52.930;8.644;2022-11-15T08:52:11;12.40;1.00
7129;DHT22;3606;52.930;8.644;2022-11-15T08:54:37;12.40;1.00
7129;DHT22;3606;52.930;8.644;2022-11-15T08:57:03;12.50;1.00
7129;DHT22;3606;52.930;8.644;2022-11-15T08:59:28;12.40;1.00
7129;DHT22;3606;52.930;8.644;2022-11-15T09:01:54;12.50;1.00
7129;DHT22;3606;52.930;8.644;2022-11-15T09:04:19;12.40;1.00
7129;DHT22;3606;52.930;8.644;2022-11-15T09:06:45;12.50;1.00
7129;DHT22;3606;52.930;8.644;2022-11-15T09:09:11;12.50;1.00
7129;DHT22;3606;52.930;8.644;2022-11-15T09:11:36;12.50;1.00
7129;DHT22;3606;52.930;8.644;2022-11-15T09:14:02;12.60;1.00
7129;DHT22;3606;52.930;8.644;2022-11-15T09:16:27;12.60;1.00
7129;DHT22;3606;52.930;8.644;2022-11-15T09:18:53;12.60;1.00
7129;DHT22;3606;52.930;8.644;2022-11-15T09:21:20;12.60;1.00
7129;DHT22;3606;52.930;8.644;2022-11-15T09:23:46;12.70;1.00
7129;DHT22;3606;52.930;8.644;2022-11-15T09:26:12;12.70;1.00
7129;DHT22;3606;52.930;8.644;2022-11-15T09:28:38;12.80;1.00
7129;DHT22;3606;52.930;8.644;2022-11-15T09:31:07;13.00;1.00
7129;DHT22;3606;52.930;8.644;2022-11-15T09:33:32;13.10;1.00
7129;DHT22;3606;52.930;8.644;2022-11-15T09:36:03;13.20;1.00
7129;DHT22;3606;52.930;8.644;2022-11-15T09:38:29;13.20;1.00
7129;DHT22;3606;52.930;8.644;2022-11-15T09:46:49;14.30;1.00
7129;DHT22;3606;52.930;8.644;2022-11-15T09:49:19;15.00;99.90
7129;DHT22;3606;52.930;8.644;2022-11-15T09:51:48;15.30;1.00
7129;DHT22;3606;52.930;8.644;2022-11-15T09:54:36;15.60;99.90
7129;DHT22;3606;52.930;8.644;2022-11-15T10:02:51;15.30;1.00
7129;DHT22;3606;52.930;8.644;2022-11-15T10:05:22;15.10;99.90
7129;DHT22;3606;52.930;8.644;2022-11-15T10:12:49;14.40;1.00
7129;DHT22;3606;52.930;8.644;2022-11-15T10:15:17;14.30;99.90
7129;DHT22;3606;52.930;8.644;2022-11-15T10:20:30;14.00;1.00
7129;DHT22;3606;52.930;8.644;2022-11-15T10:23:04;14.00;1.00
7129;DHT22;3606;52.930;8.644;2022-11-15T10:25:33;14.00;1.00
7129;DHT22;3606;52.930;8.644;2022-11-15T10:28:05;14.00;1.00
7129;DHT22;3606;52.930;8.644;2022-11-15T10:30:37;13.90;1.00
7129;DHT22;3606;52.930;8.644;2022-11-15T10:33:26;14.10;1.00
7129;DHT22;3606;52.930;8.644;2022-11-15T10:36:21;14.20;1.00
7129;DHT22;3606;52.930;8.644;2022-11-15T10:41:42;14.40;1.00
7129;DHT22;3606;52.930;8.644;2022-11-15T10:46:49;14.50;99.90
7129;DHT22;3606;52.930;8.644;2022-11-15T10:49:33;14.70;1.00
7129;DHT22;3606;52.930;8.644;2022-11-15T10:52:12;14.90;1.00
7129;DHT22;3606;52.930;8.644;2022-11-15T10:54:50;15.20;1.00
7129;DHT22;3606;52.930;8.644;2022-11-15T10:57:26;15.20;1.00
7129;DHT22;3606;52.930;8.644;2022-11-15T10:59:57;15.20;1.00
7129;DHT22;3606;52.930;8.644;2022-11-15T11:02:33;15.30;99.90
7129;DHT22;3606;52.930;8.644;2022-11-15T11:05:00;15.60;1.00
7129;DHT22;3606;52.930;8.644;2022-11-15T11:07:30;15.60;99.90
7129;DHT22;3606;52.930;8.644;2022-11-15T11:10:16;15.60;1.00
7129;DHT22;3606;52.930;8.644;2022-11-15T11:12:43;15.60;99.90
7129;DHT22;3606;52.930;8.644;2022-11-15T11:15:13;15.90;1.00
7129;DHT22;3606;52.930;8.644;2022-11-15T11:20:38;17.30;99.90
7129;DHT22;3606;52.930;8.644;2022-11-15T11:23:53;17.20;1.00
7129;DHT22;3606;52.930;8.644;2022-11-15T11:35:03;16.60;1.00
7129;DHT22;3606;52.930;8.644;2022-11-15T11:37:37;16.90;1.00
7129;DHT22;3606;52.930;8.644;2022-11-15T11:40:16;17.10;99.90
7129;DHT22;3606;52.930;8.644;2022-11-15T11:53:43;16.30;1.00
7129;DHT22;3606;52.930;8.644;2022-11-15T11:56:21;16.10;99.90
7129;DHT22;3606;52.930;8.644;2022-11-15T11:58:48;16.20;1.00
7129;DHT22;3606;52.930;8.644;2022-11-15T12:01:25;16.10;29.50
7129;DHT22;3606;52.930;8.644;2022-11-15T12:06:39;15.90;99.90
7129;DHT22;3606;52.930;8.644;2022-11-15T12:09:34;16.00;99.90
7129;DHT22;3606;52.930;8.644;2022-11-15T12:15:18;16.10;33.70
7129;DHT22;3606;52.930;8.644;2022-11-15T12:17:38;16.30;1.00
7129;DHT22;3606;52.930;8.644;2022-11-15T12:20:21;16.50;1.00
7129;DHT22;3606;52.930;8.644;2022-11-15T12:23:01;16.80;99.90
7129;DHT22;3606;52.930;8.644;2022-11-15T12:25:38;17.30;99.90
7129;DHT22;3606;52.930;8.644;2022-11-15T12:30:51;17.50;12.70
7129;DHT22;3606;52.930;8.644;2022-11-15T12:39:08;16.80;1.00
7129;DHT22;3606;52.930;8.644;2022-11-15T12:41:36;16.60;1.00
7129;DHT22;3606;52.930;8.644;2022-11-15T12:44:03;16.30;1.00
7129;DHT22;3606;52.930;8.644;2022-11-15T12:59:49;17.40;1.00
7129;DHT22;3606;52.930;8.644;2022-11-15T13:02:37;17.20;1.00
7129;DHT22;3606;52.930;8.644;2022-11-15T13:17:45;17.50;99.90
7129;DHT22;3606;52.930;8.644;2022-11-15T13:22:59;17.60;99.90
7129;DHT22;3606;52.930;8.644;2022-11-15T13:33:30;17.90;99.90
7129;DHT22;3606;52.930;8.644;2022-11-15T13:36:23;17.80;99.90
7129;DHT22;3606;52.930;8.644;2022-11-15T13:41:27;18.20;99.90
7129;DHT22;3606;52.930;8.644;2022-11-15T13:43:54;18.30;99.90
7129;DHT22;3606;52.930;8.644;2022-11-15T13:46:24;18.40;99.90
7129;DHT22;3606;52.930;8.644;2022-11-15T13:49:01;18.60;99.90
7129;DHT22;3606;52.930;8.644;2022-11-15T13:51:33;18.70;99.90
7129;DHT22;3606;52.930;8.644;2022-11-15T13:54:23;18.70;99.90
7129;DHT22;3606;52.930;8.644;2022-11-15T13:57:00;18.80;99.90
7129;DHT22;3606;52.930;8.644;2022-11-15T13:59:33;18.90;99.90
7129;DHT22;3606;52.930;8.644;2022-11-15T14:02:03;18.70;99.90
7129;DHT22;3606;52.930;8.644;2022-11-15T14:04:38;18.50;99.90
7129;DHT22;3606;52.930;8.644;2022-11-15T14:07:04;18.40;99.90
7129;DHT22;3606;52.930;8.644;2022-11-15T14:09:38;18.30;99.90
7129;DHT22;3606;52.930;8.644;2022-11-15T14:14:48;17.80;99.90
7129;DHT22;3606;52.930;8.644;2022-11-15T14:17:40;17.30;99.90
7129;DHT22;3606;52.930;8.644;2022-11-15T14:20:33;16.70;99.90
7129;DHT22;3606;52.930;8.644;2022-11-15T14:23:25;16.10;99.90
7129;DHT22;3606;52.930;8.644;2022-11-15T14:25:53;15.60;99.90
7129;DHT22;3606;52.930;8.644;2022-11-15T14:30:49;14.70;1.00
7129;DHT22;3606;52.930;8.644;2022-11-15T14:33:31;14.40;1.00
7129;DHT22;3606;52.930;8.644;2022-11-15T14:38:31;13.80;86.90
7129;DHT22;3606;52.930;8.644;2022-11-15T14:40:56;13.50;99.90
7129;DHT22;3606;52.930;8.644;2022-11-15T14:43:23;13.30;99.90
7129;DHT22;3606;52.930;8.644;2022-11-15T14:45:48;13.10;99.90
7129;DHT22;3606;52.930;8.644;2022-11-15T14:48:14;12.90;1.00
7129;DHT22;3606;52.930;8.644;2022-11-15T14:50:40;12.70;1.00
7129;DHT22;3606;52.930;8.644;2022-11-15T14:53:06;12.50;99.90
7129;DHT22;3606;52.930;8.644;2022-11-15T14:55:35;12.30;1.00
7129;DHT22;3606;52.930;8.644;2022-11-15T14:58:05;12.00;99.90
7129;DHT22;3606;52.930;8.644;2022-11-15T15:00:34;11.70;1.00
7129;DHT22;3606;52.930;8.644;2022-11-15T15:03:00;11.40;58.50
7129;DHT22;3606;52.930;8.644;2022-11-15T15:05:36;11.10;99.90
7129;DHT22;3606;52.930;8.644;2022-11-15T15:08:02;10.90;1.00
7129;DHT22;3606;52.930;8.644;2022-11-15T15:10:32;10.60;99.90
7129;DHT22;3606;52.930;8.644;2022-11-15T15:12:58;10.40;1.00
7129;DHT22;3606;52.930;8.644;2022-11-15T15:15:25;10.20;99.90
7129;DHT22;3606;52.930;8.644;2022-11-15T15:17:51;10.10;1.00
7129;DHT22;3606;52.930;8.644;2022-11-15T15:20:17;9.90;99.90
7129;DHT22;3606;52.930;8.644;2022-11-15T15:22:44;9.80;99.90
7129;DHT22;3606;52.930;8.644;2022-11-15T15:25:21;9.60;1.00
7129;DHT22;3606;52.930;8.644;2022-11-15T15:27:47;9.40;99.90
7129;DHT22;3606;52.930;8.644;2022-11-15T15:30:13;9.20;1.00
7129;DHT22;3606;52.930;8.644;2022-11-15T15:32:38;9.10;99.90
7129;DHT22;3606;52.930;8.644;2022-11-15T15:35:04;9.00;1.00
7129;DHT22;3606;52.930;8.644;2022-11-15T15:37:31;8.90;99.90
7129;DHT22;3606;52.930;8.644;2022-11-15T15:39:58;8.80;1.00
7129;DHT22;3606;52.930;8.644;2022-11-15T15:42:24;9.00;1.00
7129;DHT22;3606;52.930;8.644;2022-11-15T15:44:50;9.00;1.00
7129;DHT22;3606;52.930;8.644;2022-11-15T15:47:18;9.10;1.00
7129;DHT22;3606;52.930;8.644;2022-11-15T15:49:45;9.10;1.00
7129;DHT22;3606;52.930;8.644;2022-11-15T15:52:10;9.00;1.00
7129;DHT22;3606;52.930;8.644;2022-11-15T15:54:37;9.00;1.00
7129;DHT22;3606;52.930;8.644;2022-11-15T15:57:03;9.00;1.00
7129;DHT22;3606;52.930;8.644;2022-11-15T15:59:28;9.10;1.00
7129;DHT22;3606;52.930;8.644;2022-11-15T16:01:54;9.20;1.00
7129;DHT22;3606;52.930;8.644;2022-11-15T16:04:19;9.20;1.00
7129;DHT22;3606;52.930;8.644;2022-11-15T16:06:45;9.50;1.00
7129;DHT22;3606;52.930;8.644;2022-11-15T16:09:15;9.60;99.90
7129;DHT22;3606;52.930;8.644;2022-11-15T16:11:42;9.70;49.20
7129;DHT22;3606;52.930;8.644;2022-11-15T16:14:08;9.70;99.90
7129;DHT22;3606;52.930;8.644;2022-11-15T16:16:35;9.80;1.00
7129;DHT22;3606;52.930;8.644;2022-11-15T16:19:01;10.00;99.90
7129;DHT22;3606;52.930;8.644;2022-11-15T16:21:27;10.20;99.90
7129;DHT22;3606;52.930;8.644;2022-11-15T16:23:53;10.30;89.40
7129;DHT22;3606;52.930;8.644;2022-11-15T16:26:25;10.40;99.90
7129;DHT22;3606;52.930;8.644;2022-11-15T16:28:51;10.60;50.40
7129;DHT22;3606;52.930;8.644;2022-11-15T16:31:17;10.70;99.90
7129;DHT22;3606;52.930;8.644;2022-11-15T16:33:45;10.90;1.00
7129;DHT22;3606;52.930;8.644;2022-11-15T16:36:23;10.90;1.00
7129;DHT22;3606;52.930;8.644;2022-11-15T16:38:49;11.00;1.00
7129;DHT22;3606;52.930;8.644;2022-11-15T16:41:16;11.00;1.00
7129;DHT22;3606;52.930;8.644;2022-11-15T16:43:44;11.10;1.00
7129;DHT22;3606;52.930;8.644;2022-11-15T16:46:22;11.20;1.00
7129;DHT22;3606;52.930;8.644;2022-11-15T16:48:49;11.30;1.00
7129;DHT22;3606;52.930;8.644;2022-11-15T16:51:15;11.30;99.90
7129;DHT22;3606;52.930;8.644;2022-11-15T16:53:41;11.30;99.90
7129;DHT22;3606;52.930;8.644;2022-11-15T16:56:27;11.40;99.90
7129;DHT22;3606;52.930;8.644;2022-11-15T16:58:54;11.40;99.90
7129;DHT22;3606;52.930;8.644;2022-11-15T17:01:34;11.40;99.90
7129;DHT22;3606;52.930;8.644;2022-11-15T17:04:01;11.40;99.90
7129;DHT22;3606;52.930;8.644;2022-11-15T17:06:42;11.40;99.90
7129;DHT22;3606;52.930;8.644;2022-11-15T17:09:16;11.50;99.90
7129;DHT22;3606;52.930;8.644;2022-11-15T17:11:43;11.40;99.90
7129;DHT22;3606;52.930;8.644;2022-11-15T17:14:09;11.40;99.90
7129;DHT22;3606;52.930;8.644;2022-11-15T17:16:35;11.40;1.00
7129;DHT22;3606;52.930;8.644;2022-11-15T17:19:03;11.40;1.00
7129;DHT22;3606;52.930;8.644;2022-11-15T17:21:28;11.40;1.00
7129;DHT22;3606;52.930;8.644;2022-11-15T17:23:54;11.40;1.00
7129;DHT22;3606;52.930;8.644;2022-11-15T17:26:21;11.50;1.00
7129;DHT22;3606;52.930;8.644;2022-11-15T17:28:46;11.50;1.00
7129;DHT22;3606;52.930;8.644;2022-11-15T17:31:13;11.50;1.00
7129;DHT22;3606;52.930;8.644;2022-11-15T17:33:39;11.50;99.90
7129;DHT22;3606;52.930;8.644;2022-11-15T17:36:08;11.60;99.90
7129;DHT22;3606;52.930;8.644;2022-11-15T17:38:34;11.60;99.90
7129;DHT22;3606;52.930;8.644;2022-11-15T17:41:08;11.60;99.90
7129;DHT22;3606;52.930;8.644;2022-11-15T17:43:35;11.60;99.90
7129;DHT22;3606;52.930;8.644;2022-11-15T17:46:04;11.60;99.90
7129;DHT22;3606;52.930;8.644;2022-11-15T17:48:30;11.60;99.90
7129;DHT22;3606;52.930;8.644;2022-11-15T17:51:02;11.60;36.90
7129;DHT22;3606;52.930;8.644;2022-11-15T17:53:36;11.60;99.90
7129;DHT22;3606;52.930;8.644;2022-11-15T17:56:08;11.60;99.90
7129;DHT22;3606;52.930;8.644;2022-11-15T17:58:34;11.60;92.30
7129;DHT22;3606;52.930;8.644;2022-11-15T18:01:31;11.60;99.90
7129;DHT22;3606;52.930;8.644;2022-11-15T18:03:58;11.70;52.00
7129;DHT22;3606;52.930;8.644;2022-11-15T18:06:26;11.70;1.00
7129;DHT22;3606;52.930;8.644;2022-11-15T18:08:53;11.70;1.00
7129;DHT22;3606;52.930;8.644;2022-11-15T18:11:24;11.70;1.00
7129;DHT22;3606;52.930;8.644;2022-11-15T18:13:53;11.60;1.00
7129;DHT22;3606;52.930;8.644;2022-11-15T18:16:21;11.60;99.90
7129;DHT22;3606;52.930;8.644;2022-11-15T18:18:47;11.60;99.90
7129;DHT22;3606;52.930;8.644;2022-11-15T18:21:15;11.50;99.90
7129;DHT22;3606;52.930;8.644;2022-11-15T18:23:43;11.50;99.90
7129;DHT22;3606;52.930;8.644;2022-11-15T18:26:10;11.60;1.00
7129;DHT22;3606;52.930;8.644;2022-11-15T18:28:39;11.60;1.00
7129;DHT22;3606;52.930;8.644;2022-11-15T18:33:41;11.60;1.00
7129;DHT22;3606;52.930;8.644;2022-11-15T18:36:10;11.50;42.70
7129;DHT22;3606;52.930;8.644;2022-11-15T18:38:36;11.50;99.90
7129;DHT22;3606;52.930;8.644;2022-11-15T18:41:16;11.50;99.90
7129;DHT22;3606;52.930;8.644;2022-11-15T18:43:43;11.50;99.90
7129;DHT22;3606;52.930;8.644;2022-11-15T18:46:14;11.50;99.90
7129;DHT22;3606;52.930;8.644;2022-11-15T18:48:42;11.40;99.90
7129;DHT22;3606;52.930;8.644;2022-11-15T18:51:09;11.50;84.70
7129;DHT22;3606;52.930;8.644;2022-11-15T18:53:36;11.50;1.00